sensor_id;sensor_type;location;lat;lon;timestamp;pressure;altitude;pressure_sealevel;temperature;humidity
45541;BME280;31265;49.680;8.608;2024-02-15T00:00:34;101067.56;;;9.81;100.00
45541;BME280;31265;49.680;8.608;2024-02-15T00:03:03;101061.06;;;9.79;100.00
45541;BME280;31265;49.680;8.608;2024-02-15T00:05:33;101063.84;;;9.79;100.00
45541;BME280;31265;49.680;8.608;2024-02-15T00:08:04;101049.03;;;9.76;100.00
45541;BME280;31265;49.680;8.608;2024-02-15T00:10:33;101058.22;;;9.71;100.00
45541;BME280;31265;49.680;8.608;2024-02-15T00:13:01;101056.28;;;9.79;100.00
45541;BME280;31265;49.680;8.608;2024-02-15T00:15:30;101059.38;;;9.76;100.00
45541;BME280;31265;49.680;8.608;2024-02-15T00:18:00;101051.81;;;9.76;100.00
45541;BME280;31265;49.680;8.608;2024-02-15T00:20:31;101054.03;;;9.78;100.00
45541;BME280;31265;49.680;8.608;2024-02-15T00:23:01;101054.56;;;9.76;100.00
45541;BME280;31265;49.680;8.608;2024-02-15T00:25:33;101054.56;;;9.76;100.00
45541;BME280;31265;49.680;8.608;2024-02-15T00:28:02;101054.56;;;9.76;100.00
45541;BME280;31265;49.680;8.608;2024-02-15T00:30:30;101047.56;;;9.75;100.00
45541;BME280;31265;49.680;8.608;2024-02-15T00:33:00;101040.94;;;9.78;100.00
45541;BME280;31265;49.680;8.608;2024-02-15T00:35:31;101052.00;;;9.78;100.00
45541;BME280;31265;49.680;8.608;2024-02-15T00:38:00;101044.44;;;9.79;100.00
45541;BME280;31265;49.680;8.608;2024-02-15T00:40:29;101039.84;;;9.81;100.00
45541;BME280;31265;49.680;8.608;2024-02-15T00:42:58;101040.94;;;9.78;100.00
45541;BME280;31265;49.680;8.608;2024-02-15T00:45:27;101043.28;;;9.74;100.00
45541;BME280;31265;49.680;8.608;2024-02-15T00:47:56;101048.91;;;9.82;100.00
45541;BME280;31265;49.680;8.608;2024-02-15T00:50:27;101047.22;;;9.79;100.00
45541;BME280;31265;49.680;8.608;2024-02-15T00:52:55;101036.88;;;9.79;100.00
45541;BME280;31265;49.680;8.608;2024-02-15T00:55:24;101043.44;;;9.89;100.00
45541;BME280;31265;49.680;8.608;2024-02-15T00:57:52;101045.53;;;9.97;100.00
45541;BME280;31265;49.680;8.608;2024-02-15T01:00:21;101049.94;;;9.92;100.00
45541;BME280;31265;49.680;8.608;2024-02-15T01:02:52;101046.22;;;9.89;100.00
45541;BME280;31265;49.680;8.608;2024-02-15T01:05:21;101049.38;;;9.94;100.00
45541;BME280;31265;49.680;8.608;2024-02-15T01:07:53;101044.72;;;9.88;100.00
45541;BME280;31265;49.680;8.608;2024-02-15T01:10:23;101043.25;;;9.87;100.00
45541;BME280;31265;49.680;8.608;2024-02-15T01:12:51;101045.28;;;9.87;100.00
45541;BME280;31265;49.680;8.608;2024-02-15T01:15:21;101043.56;;;9.84;100.00
45541;BME280;31265;49.680;8.608;2024-02-15T01:17:50;101043.44;;;9.89;100.00
45541;BME280;31265;49.680;8.608;2024-02-15T01:20:19;101045.81;;;9.85;100.00
45541;BME280;31265;49.680;8.608;2024-02-15T01:22:48;101043.78;;;9.86;100.00
45541;BME280;31265;49.680;8.608;2024-02-15T01:25:18;101043.25;;;9.87;100.00
45541;BME280;31265;49.680;8.608;2024-02-15T01:27:47;101046.53;;;9.86;100.00
45541;BME280;31265;49.680;8.608;2024-02-15T01:30:16;101042.81;;;9.83;100.00
45541;BME280;31265;49.680;8.608;2024-02-15T01:32:44;101038.00;;;9.84;100.00
45541;BME280;31265;49.680;8.608;2024-02-15T01:35:13;101043.38;;;9.82;100.00
45541;BME280;31265;49.680;8.608;2024-02-15T01:37:41;101049.88;;;9.84;100.00
45541;BME280;31265;49.680;8.608;2024-02-15T01:40:10;101050.94;;;9.81;100.00
45541;BME280;31265;49.680;8.608;2024-02-15T01:42:41;101044.66;;;9.81;100.00
45541;BME280;31265;49.680;8.608;2024-02-15T01:45:09;101047.09;;;9.84;100.00
45541;BME280;31265;49.680;8.608;2024-02-15T01:47:39;101042.28;;;9.85;100.00
45541;BME280;31265;49.680;8.608;2024-02-15T01:50:09;101049.88;;;9.84;100.00
45541;BME280;31265;49.680;8.608;2024-02-15T01:52:39;101049.19;;;9.92;100.00
45541;BME280;31265;49.680;8.608;2024-02-15T01:55:09;101047.69;;;9.90;100.00
45541;BME280;31265;49.680;8.608;2024-02-15T01:57:40;101044.72;;;9.88;100.00
45541;BME280;31265;49.680;8.608;2024-02-15T02:00:12;101047.69;;;9.90;100.00
45541;BME280;31265;49.680;8.608;2024-02-15T02:02:44;101045.44;;;9.89;100.00
45541;BME280;31265;49.680;8.608;2024-02-15T02:05:13;101044.19;;;9.90;100.00
45541;BME280;31265;49.680;8.608;2024-02-15T02:07:42;101039.06;;;9.94;100.00
45541;BME280;31265;49.680;8.608;2024-02-15T02:10:10;101045.53;;;9.97;100.00
45541;BME280;31265;49.680;8.608;2024-02-15T02:12:42;101031.47;;;9.95;100.00
45541;BME280;31265;49.680;8.608;2024-02-15T02:15:11;101036.06;;;9.92;100.00
45541;BME280;31265;49.680;8.608;2024-02-15T02:17:39;101034.03;;;9.93;100.00
45541;BME280;31265;49.680;8.608;2024-02-15T02:20:08;101024.84;;;9.98;100.00
45541;BME280;31265;49.680;8.608;2024-02-15T02:22:41;101026.13;;;9.97;100.00
45541;BME280;31265;49.680;8.608;2024-02-15T02:25:16;101031.88;;;9.99;100.00
45541;BME280;31265;49.680;8.608;2024-02-15T02:27:44;101025.06;;;10.00;100.00
45541;BME280;31265;49.680;8.608;2024-02-15T02:30:14;101022.66;;;10.04;100.00
45541;BME280;31265;49.680;8.608;2024-02-15T02:32:46;101021.19;;;10.03;100.00
45541;BME280;31265;49.680;8.608;2024-02-15T02:35:14;101015.84;;;10.05;100.00
45541;BME280;31265;49.680;8.608;2024-02-15T02:37:44;101016.59;;;10.05;100.00
45541;BME280;31265;49.680;8.608;2024-02-15T02:40:15;101015.44;;;10.01;100.00
45541;BME280;31265;49.680;8.608;2024-02-15T02:42:48;101015.84;;;10.05;100.00
45541;BME280;31265;49.680;8.608;2024-02-15T02:45:17;101020.44;;;10.02;100.00
45541;BME280;31265;49.680;8.608;2024-02-15T02:47:46;101018.94;;;10.01;100.00
45541;BME280;31265;49.680;8.608;2024-02-15T02:50:20;101014.50;;;9.98;100.00
45541;BME280;31265;49.680;8.608;2024-02-15T02:52:48;101010.78;;;9.96;100.00
45541;BME280;31265;49.680;8.608;2024-02-15T02:55:18;101009.31;;;9.95;100.00
45541;BME280;31265;49.680;8.608;2024-02-15T02:57:48;101006.31;;;9.93;100.00
45541;BME280;31265;49.680;8.608;2024-02-15T03:00:17;101003.13;;;9.88;100.00
45541;BME280;31265;49.680;8.608;2024-02-15T03:02:47;101003.69;;;9.87;100.00
45541;BME280;31265;49.680;8.608;2024-02-15T03:05:16;101012.97;;;9.89;100.00
45541;BME280;31265;49.680;8.608;2024-02-15T03:07:49;101005.91;;;9.88;100.00
45541;BME280;31265;49.680;8.608;2024-02-15T03:10:20;101005.16;;;9.88;100.00
45541;BME280;31265;49.680;8.608;2024-02-15T03:12:50;101007.41;;;9.89;100.00
45541;BME280;31265;49.680;8.608;2024-02-15T03:15:19;101012.19;;;9.89;100.00
45541;BME280;31265;49.680;8.608;2024-02-15T03:17:49;101007.41;;;9.89;100.00
45541;BME280;31265;49.680;8.608;2024-02-15T03:20:18;101010.38;;;9.92;100.00
45541;BME280;31265;49.680;8.608;2024-02-15T03:22:53;101009.63;;;9.91;100.00
45541;BME280;31265;49.680;8.608;2024-02-15T03:25:23;101006.31;;;9.93;100.00
45541;BME280;31265;49.680;8.608;2024-02-15T03:27:52;101008.56;;;9.94;100.00
45541;BME280;31265;49.680;8.608;2024-02-15T03:30:22;101014.84;;;9.95;100.00
45541;BME280;31265;49.680;8.608;2024-02-15T03:32:52;101006.03;;;10.04;100.00
45541;BME280;31265;49.680;8.608;2024-02-15T03:35:23;101010.78;;;9.96;100.00
45541;BME280;31265;49.680;8.608;2024-02-15T03:37:52;101009.31;;;9.95;100.00
45541;BME280;31265;49.680;8.608;2024-02-15T03:40:23;101006.91;;;9.99;100.00
45541;BME280;31265;49.680;8.608;2024-02-15T03:42:54;101011.34;;;9.94;100.00
45541;BME280;31265;49.680;8.608;2024-02-15T03:45:23;101007.06;;;9.93;100.00
45541;BME280;31265;49.680;8.608;2024-02-15T03:47:54;101005.03;;;9.94;100.00
45541;BME280;31265;49.680;8.608;2024-02-15T03:50:25;101011.66;;;9.90;100.00
45541;BME280;31265;49.680;8.608;2024-02-15T03:52:54;101016.66;;;9.92;100.00
45541;BME280;31265;49.680;8.608;2024-02-15T03:55:24;101008.00;;;9.96;100.00
45541;BME280;31265;49.680;8.608;2024-02-15T03:57:52;101006.72;;;9.97;100.00
45541;BME280;31265;49.680;8.608;2024-02-15T04:00:23;101008.88;;;9.90;100.00
45541;BME280;31265;49.680;8.608;2024-02-15T04:02:52;101014.78;;;9.87;100.00
45541;BME280;31265;49.680;8.608;2024-02-15T04:05:22;101015.31;;;9.85;100.00
45541;BME280;31265;49.680;8.608;2024-02-15T04:07:50;101018.09;;;9.85;100.00
45541;BME280;31265;49.680;8.608;2024-02-15T04:10:20;101008.09;;;9.82;100.00
45541;BME280;31265;49.680;8.608;2024-02-15T04:12:50;101018.63;;;9.84;100.00
45541;BME280;31265;49.680;8.608;2024-02-15T04:15:19;101005.31;;;9.82;100.00
45541;BME280;31265;49.680;8.608;2024-02-15T04:17:47;101006.06;;;9.83;100.00
45541;BME280;31265;49.680;8.608;2024-02-15T04:20:20;101005.84;;;9.81;100.00
45541;BME280;31265;49.680;8.608;2024-02-15T04:22:48;101009.34;;;9.81;100.00
45541;BME280;31265;49.680;8.608;2024-02-15T04:25:17;101000.31;;;9.81;100.00
45541;BME280;31265;49.680;8.608;2024-02-15T04:27:51;101009.25;;;9.87;100.00
45541;BME280;31265;49.680;8.608;2024-02-15T04:30:19;101004.00;;;9.83;100.00
45541;BME280;31265;49.680;8.608;2024-02-15T04:32:50;101003.81;;;9.81;100.00
45541;BME280;31265;49.680;8.608;2024-02-15T04:35:20;101005.31;;;9.82;100.00
45541;BME280;31265;49.680;8.608;2024-02-15T04:37:49;101007.88;;;9.80;100.00
45541;BME280;31265;49.680;8.608;2024-02-15T04:40:20;101004.00;;;9.83;100.00
45541;BME280;31265;49.680;8.608;2024-02-15T04:42:50;101001.25;;;9.83;100.00
45541;BME280;31265;49.680;8.608;2024-02-15T04:45:20;100999.78;;;9.82;100.00
45541;BME280;31265;49.680;8.608;2024-02-15T04:47:49;100994.44;;;9.84;100.00
45541;BME280;31265;49.680;8.608;2024-02-15T04:50:20;100990.00;;;9.89;100.00
45541;BME280;31265;49.680;8.608;2024-02-15T04:52:49;100994.44;;;9.84;100.00
45541;BME280;31265;49.680;8.608;2024-02-15T04:55:18;100994.81;;;9.88;100.00
45541;BME280;31265;49.680;8.608;2024-02-15T04:57:47;100984.47;;;9.89;100.00
45541;BME280;31265;49.680;8.608;2024-02-15T05:00:18;100985.03;;;9.87;100.00
45541;BME280;31265;49.680;8.608;2024-02-15T05:02:48;100981.31;;;9.85;100.00
45541;BME280;31265;49.680;8.608;2024-02-15T05:05:17;100977.03;;;9.84;100.00
45541;BME280;31265;49.680;8.608;2024-02-15T05:07:45;100985.19;;;9.82;100.00
45541;BME280;31265;49.680;8.608;2024-02-15T05:10:16;100981.47;;;9.79;100.00
45541;BME280;31265;49.680;8.608;2024-02-15T05:12:46;100984.97;;;9.80;100.00
45541;BME280;31265;49.680;8.608;2024-02-15T05:15:16;100985.91;;;9.82;100.00
45541;BME280;31265;49.680;8.608;2024-02-15T05:17:47;100976.09;;;9.81;100.00
45541;BME280;31265;49.680;8.608;2024-02-15T05:20:16;100977.81;;;9.84;100.00
45541;BME280;31265;49.680;8.608;2024-02-15T05:22:44;100976.09;;;9.81;100.00
45541;BME280;31265;49.680;8.608;2024-02-15T05:25:17;100972.25;;;9.84;100.00
45541;BME280;31265;49.680;8.608;2024-02-15T05:27:52;100981.09;;;9.83;100.00
45541;BME280;31265;49.680;8.608;2024-02-15T05:30:24;100967.78;;;9.81;100.00
45541;BME280;31265;49.680;8.608;2024-02-15T05:32:54;100971.84;;;9.80;100.00
45541;BME280;31265;49.680;8.608;2024-02-15T05:35:25;100973.31;;;9.81;100.00
45541;BME280;31265;49.680;8.608;2024-02-15T05:37:54;100972.06;;;9.82;100.00
45541;BME280;31265;49.680;8.608;2024-02-15T05:40:24;100977.38;;;9.80;100.00
45541;BME280;31265;49.680;8.608;2024-02-15T05:42:56;100965.56;;;9.80;100.00
45541;BME280;31265;49.680;8.608;2024-02-15T05:45:29;100967.56;;;10.00;100.00
45541;BME280;31265;49.680;8.608;2024-02-15T05:48:03;100972.31;;;9.92;100.00
45541;BME280;31265;49.680;8.608;2024-02-15T05:50:34;100968.59;;;9.89;100.00
45541;BME280;31265;49.680;8.608;2024-02-15T05:53:03;100967.84;;;9.89;100.00
45541;BME280;31265;49.680;8.608;2024-02-15T05:55:32;100961.03;;;9.90;100.00
45541;BME280;31265;49.680;8.608;2024-02-15T05:58:02;100962.19;;;9.95;100.00
45541;BME280;31265;49.680;8.608;2024-02-15T06:00:30;100972.69;;;9.96;100.00
45541;BME280;31265;49.680;8.608;2024-02-15T06:03:04;100953.13;;;9.94;100.00
45541;BME280;31265;49.680;8.608;2024-02-15T06:05:33;100955.34;;;9.96;100.00
45541;BME280;31265;49.680;8.608;2024-02-15T06:08:02;100956.84;;;9.97;100.00
45541;BME280;31265;49.680;8.608;2024-02-15T06:10:31;100956.06;;;9.96;100.00
45541;BME280;31265;49.680;8.608;2024-02-15T06:13:00;100950.00;;;9.98;100.00
45541;BME280;31265;49.680;8.608;2024-02-15T06:15:28;100947.28;;;10.05;100.00
45541;BME280;31265;49.680;8.608;2024-02-15T06:17:56;100955.94;;;10.02;100.00
45541;BME280;31265;49.680;8.608;2024-02-15T06:20:27;100951.19;;;10.10;100.00
45541;BME280;31265;49.680;8.608;2024-02-15T06:22:57;100944.34;;;10.11;100.00
45541;BME280;31265;49.680;8.608;2024-02-15T06:25:25;100942.75;;;10.23;100.00
45541;BME280;31265;49.680;8.608;2024-02-15T06:27:54;100944.03;;;10.15;100.00
45541;BME280;31265;49.680;8.608;2024-02-15T06:30:31;100949.69;;;10.30;100.00
45541;BME280;31265;49.680;8.608;2024-02-15T06:33:17;100952.38;;;10.22;100.00
45541;BME280;31265;49.680;8.608;2024-02-15T06:36:10;100941.28;;;10.22;100.00
45541;BME280;31265;49.680;8.608;2024-02-15T06:39:07;100948.88;;;10.22;100.00
45541;BME280;31265;49.680;8.608;2024-02-15T06:41:54;100951.50;;;10.27;100.00
45541;BME280;31265;49.680;8.608;2024-02-15T06:44:23;100942.59;;;10.21;100.00
45541;BME280;31265;49.680;8.608;2024-02-15T06:46:51;100947.16;;;10.19;100.00
45541;BME280;31265;49.680;8.608;2024-02-15T06:49:20;100945.16;;;10.19;100.00
45541;BME280;31265;49.680;8.608;2024-02-15T06:51:53;100942.91;;;10.18;100.00
45541;BME280;31265;49.680;8.608;2024-02-15T06:54:21;100950.31;;;10.15;100.00
45541;BME280;31265;49.680;8.608;2024-02-15T06:56:50;100941.63;;;10.19;100.00
45541;BME280;31265;49.680;8.608;2024-02-15T06:59:21;100944.81;;;10.23;100.00
45541;BME280;31265;49.680;8.608;2024-02-15T07:01:50;100937.03;;;10.21;100.00
45541;BME280;31265;49.680;8.608;2024-02-15T07:04:19;100942.97;;;10.25;100.00
45541;BME280;31265;49.680;8.608;2024-02-15T07:06:48;100944.13;;;10.30;100.00
45541;BME280;31265;49.680;8.608;2024-02-15T07:09:20;100941.41;;;10.38;100.00
45541;BME280;31265;49.680;8.608;2024-02-15T07:11:51;100935.53;;;10.41;100.00
45541;BME280;31265;49.680;8.608;2024-02-15T07:14:20;100941.66;;;10.47;100.00
45541;BME280;31265;49.680;8.608;2024-02-15T07:16:49;100935.00;;;10.50;100.00
45541;BME280;31265;49.680;8.608;2024-02-15T07:19:18;100938.59;;;10.66;100.00
45541;BME280;31265;49.680;8.608;2024-02-15T07:21:46;100941.72;;;10.63;100.00
45541;BME280;31265;49.680;8.608;2024-02-15T07:24:15;100947.66;;;10.67;100.00
45541;BME280;31265;49.680;8.608;2024-02-15T07:26:45;100946.34;;;10.60;100.00
45541;BME280;31265;49.680;8.608;2024-02-15T07:29:14;100949.34;;;10.70;100.00
45541;BME280;31265;49.680;8.608;2024-02-15T07:31:42;100952.50;;;10.74;100.00
45541;BME280;31265;49.680;8.608;2024-02-15T07:34:12;100952.34;;;10.80;100.00
45541;BME280;31265;49.680;8.608;2024-02-15T07:36:42;100951.06;;;10.81;100.00
45541;BME280;31265;49.680;8.608;2024-02-15T07:39:12;100944.41;;;10.84;100.00
45541;BME280;31265;49.680;8.608;2024-02-15T07:41:53;100935.19;;;10.89;100.00
45541;BME280;31265;49.680;8.608;2024-02-15T07:44:21;100939.81;;;10.94;100.00
45541;BME280;31265;49.680;8.608;2024-02-15T07:46:50;100934.81;;;11.00;100.00
45541;BME280;31265;49.680;8.608;2024-02-15T07:49:19;100942.41;;;11.00;100.00
45541;BME280;31265;49.680;8.608;2024-02-15T07:51:48;100946.31;;;11.04;100.00
45541;BME280;31265;49.680;8.608;2024-02-15T07:54:20;100950.78;;;11.07;100.00
45541;BME280;31265;49.680;8.608;2024-02-15T07:56:49;100948.41;;;11.19;100.00
45541;BME280;31265;49.680;8.608;2024-02-15T07:59:19;100954.72;;;11.27;100.00
45541;BME280;31265;49.680;8.608;2024-02-15T08:01:48;100960.47;;;11.29;100.00
45541;BME280;31265;49.680;8.608;2024-02-15T08:04:18;100958.41;;;11.30;100.00
45541;BME280;31265;49.680;8.608;2024-02-15T08:06:48;100964.16;;;11.32;100.00
45541;BME280;31265;49.680;8.608;2024-02-15T08:09:18;100957.53;;;11.43;100.00
45541;BME280;31265;49.680;8.608;2024-02-15T08:11:49;100963.31;;;11.52;100.00
45541;BME280;31265;49.680;8.608;2024-02-15T08:14:17;100960.53;;;11.52;100.00
45541;BME280;31265;49.680;8.608;2024-02-15T08:16:49;100968.28;;;11.54;100.00
45541;BME280;31265;49.680;8.608;2024-02-15T08:19:17;100966.44;;;11.49;100.00
45541;BME280;31265;49.680;8.608;2024-02-15T08:21:46;100962.19;;;11.55;100.00
45541;BME280;31265;49.680;8.608;2024-02-15T08:24:17;100967.19;;;11.65;100.00
45541;BME280;31265;49.680;8.608;2024-02-15T08:26:46;100961.06;;;11.66;100.00
45541;BME280;31265;49.680;8.608;2024-02-15T08:29:14;100966.63;;;11.74;100.00
45541;BME280;31265;49.680;8.608;2024-02-15T08:31:43;100966.28;;;11.85;100.00
45541;BME280;31265;49.680;8.608;2024-02-15T08:34:12;100959.06;;;11.82;100.00
45541;BME280;31265;49.680;8.608;2024-02-15T08:36:41;100961.88;;;11.90;100.00
45541;BME280;31265;49.680;8.608;2024-02-15T08:39:10;100954.63;;;11.87;100.00
45541;BME280;31265;49.680;8.608;2024-02-15T08:41:41;100952.03;;;11.89;100.00
45541;BME280;31265;49.680;8.608;2024-02-15T08:44:11;100953.13;;;12.01;100.00
45541;BME280;31265;49.680;8.608;2024-02-15T08:46:43;100957.59;;;12.12;100.00
45541;BME280;31265;49.680;8.608;2024-02-15T08:49:13;100958.69;;;12.16;100.00
45541;BME280;31265;49.680;8.608;2024-02-15T08:51:41;100955.16;;;12.16;100.00
45541;BME280;31265;49.680;8.608;2024-02-15T08:54:09;100959.91;;;12.46;100.00
45541;BME280;31265;49.680;8.608;2024-02-15T08:56:38;100956.78;;;12.50;100.00
45541;BME280;31265;49.680;8.608;2024-02-15T08:59:06;100943.63;;;12.35;100.00
45541;BME280;31265;49.680;8.608;2024-02-15T09:01:36;100944.00;;;12.31;100.00
45541;BME280;31265;49.680;8.608;2024-02-15T09:04:07;100938.94;;;12.53;100.00
45541;BME280;31265;49.680;8.608;2024-02-15T09:06:37;100949.69;;;12.64;100.00
45541;BME280;31265;49.680;8.608;2024-02-15T09:09:05;100932.44;;;12.50;100.00
45541;BME280;31265;49.680;8.608;2024-02-15T09:11:34;100936.66;;;12.74;100.00
45541;BME280;31265;49.680;8.608;2024-02-15T09:14:03;100938.13;;;12.75;100.00
45541;BME280;31265;49.680;8.608;2024-02-15T09:16:32;100929.66;;;12.50;100.00
45541;BME280;31265;49.680;8.608;2024-02-15T09:19:01;100933.00;;;12.56;100.00
45541;BME280;31265;49.680;8.608;2024-02-15T09:21:30;100931.41;;;12.78;100.00
45541;BME280;31265;49.680;8.608;2024-02-15T09:23:59;100932.47;;;12.90;100.00
45541;BME280;31265;49.680;8.608;2024-02-15T09:26:28;100930.53;;;13.08;100.00
45541;BME280;31265;49.680;8.608;2024-02-15T09:28:57;100928.41;;;13.24;100.00
45541;BME280;31265;49.680;8.608;2024-02-15T09:31:25;100927.47;;;13.29;100.00
45541;BME280;31265;49.680;8.608;2024-02-15T09:33:53;100927.47;;;13.29;100.00
45541;BME280;31265;49.680;8.608;2024-02-15T09:36:22;100923.28;;;13.46;100.00
45541;BME280;31265;49.680;8.608;2024-02-15T09:38:51;100920.38;;;13.36;100.00
45541;BME280;31265;49.680;8.608;2024-02-15T09:41:20;100916.91;;;13.53;100.00
45541;BME280;31265;49.680;8.608;2024-02-15T09:43:49;100916.13;;;13.52;100.00
45541;BME280;31265;49.680;8.608;2024-02-15T09:46:19;100912.19;;;13.38;100.00
45541;BME280;31265;49.680;8.608;2024-02-15T09:48:50;100904.19;;;13.60;100.00
45541;BME280;31265;49.680;8.608;2024-02-15T09:51:26;100913.25;;;13.68;100.00
45541;BME280;31265;49.680;8.608;2024-02-15T09:53:57;100914.16;;;13.70;100.00
45541;BME280;31265;49.680;8.608;2024-02-15T09:56:30;100905.88;;;13.63;100.00
45541;BME280;31265;49.680;8.608;2024-02-15T09:59:00;100910.16;;;13.81;100.00
45541;BME280;31265;49.680;8.608;2024-02-15T10:01:31;100902.78;;;13.51;100.00
45541;BME280;31265;49.680;8.608;2024-02-15T10:04:01;100906.28;;;13.76;100.00
45541;BME280;31265;49.680;8.608;2024-02-15T10:06:34;100899.41;;;13.77;100.00
45541;BME280;31265;49.680;8.608;2024-02-15T10:09:25;100901.53;;;13.87;100.00
45541;BME280;31265;49.680;8.608;2024-02-15T10:12:05;100901.63;;;13.96;100.00
45541;BME280;31265;49.680;8.608;2024-02-15T10:14:35;100896.56;;;14.20;100.00
45541;BME280;31265;49.680;8.608;2024-02-15T10:17:06;100896.25;;;14.16;100.00
45541;BME280;31265;49.680;8.608;2024-02-15T10:19:37;100892.81;;;14.25;100.00
45541;BME280;31265;49.680;8.608;2024-02-15T10:22:06;100890.91;;;14.28;100.00
45541;BME280;31265;49.680;8.608;2024-02-15T10:24:37;100883.44;;;14.13;100.00
45541;BME280;31265;49.680;8.608;2024-02-15T10:27:08;100888.69;;;14.26;100.00
45541;BME280;31265;49.680;8.608;2024-02-15T10:29:37;100887.47;;;14.37;100.00
45541;BME280;31265;49.680;8.608;2024-02-15T10:32:07;100884.81;;;14.39;100.00
45541;BME280;31265;49.680;8.608;2024-02-15T10:34:44;100888.78;;;14.53;100.00
45541;BME280;31265;49.680;8.608;2024-02-15T10:37:18;100876.56;;;14.76;100.00
45541;BME280;31265;49.680;8.608;2024-02-15T10:40:03;100886.22;;;14.65;100.00
45541;BME280;31265;49.680;8.608;2024-02-15T10:42:36;100876.66;;;14.68;100.00
45541;BME280;31265;49.680;8.608;2024-02-15T10:45:05;100877.94;;;14.57;100.00
45541;BME280;31265;49.680;8.608;2024-02-15T10:47:39;100872.69;;;14.44;100.00
45541;BME280;31265;49.680;8.608;2024-02-15T10:50:08;100871.69;;;14.49;100.00
45541;BME280;31265;49.680;8.608;2024-02-15T10:52:44;100869.13;;;14.61;100.00
45541;BME280;31265;49.680;8.608;2024-02-15T10:55:24;100862.72;;;14.51;100.00
45541;BME280;31265;49.680;8.608;2024-02-15T10:57:57;100857.06;;;14.41;100.00
45541;BME280;31265;49.680;8.608;2024-02-15T11:00:27;100853.69;;;14.60;100.00
45541;BME280;31265;49.680;8.608;2024-02-15T11:03:01;100843.25;;;14.60;100.00
45541;BME280;31265;49.680;8.608;2024-02-15T11:05:34;100840.19;;;14.66;100.00
45541;BME280;31265;49.680;8.608;2024-02-15T11:08:07;100840.19;;;14.66;100.00
45541;BME280;31265;49.680;8.608;2024-02-15T11:10:36;100836.84;;;14.68;100.00
45541;BME280;31265;49.680;8.608;2024-02-15T11:13:07;100837.25;;;14.91;100.00
45541;BME280;31265;49.680;8.608;2024-02-15T11:15:46;100833.28;;;15.31;100.00
45541;BME280;31265;49.680;8.608;2024-02-15T11:18:47;100825.47;;;15.30;100.00
45541;BME280;31265;49.680;8.608;2024-02-15T11:21:55;100825.81;;;15.43;100.00
45541;BME280;31265;49.680;8.608;2024-02-15T11:24:25;100814.28;;;15.30;100.00
45541;BME280;31265;49.680;8.608;2024-02-15T11:26:57;100814.22;;;15.57;100.00
45541;BME280;31265;49.680;8.608;2024-02-15T11:29:50;100810.88;;;15.78;100.00
45541;BME280;31265;49.680;8.608;2024-02-15T11:32:34;100810.97;;;15.51;100.00
45541;BME280;31265;49.680;8.608;2024-02-15T11:35:03;100809.94;;;15.46;100.00
45541;BME280;31265;49.680;8.608;2024-02-15T11:38:03;100806.19;;;15.90;100.00
45541;BME280;31265;49.680;8.608;2024-02-15T11:41:02;100803.81;;;15.86;100.00
45541;BME280;31265;49.680;8.608;2024-02-15T11:43:47;100796.75;;;15.95;100.00
45541;BME280;31265;49.680;8.608;2024-02-15T11:46:25;100791.00;;;15.93;100.00
45541;BME280;31265;49.680;8.608;2024-02-15T11:48:57;100792.16;;;16.19;100.00
45541;BME280;31265;49.680;8.608;2024-02-15T11:51:29;100791.69;;;16.42;100.00
45541;BME280;31265;49.680;8.608;2024-02-15T11:54:00;100790.34;;;16.43;100.00
45541;BME280;31265;49.680;8.608;2024-02-15T11:56:48;100791.97;;;16.46;100.00
45541;BME280;31265;49.680;8.608;2024-02-15T11:59:19;100780.53;;;16.23;100.00
45541;BME280;31265;49.680;8.608;2024-02-15T12:01:58;100772.69;;;16.21;100.00
45541;BME280;31265;49.680;8.608;2024-02-15T12:04:44;100772.13;;;16.13;100.00
45541;BME280;31265;49.680;8.608;2024-02-15T12:07:31;100764.47;;;16.23;100.00
45541;BME280;31265;49.680;8.608;2024-02-15T12:10:19;100756.19;;;16.35;100.00
45541;BME280;31265;49.680;8.608;2024-02-15T12:13:05;100756.75;;;16.33;100.00
45541;BME280;31265;49.680;8.608;2024-02-15T12:15:57;100746.88;;;16.42;100.00
45541;BME280;31265;49.680;8.608;2024-02-15T12:18:45;100747.06;;;16.34;100.00
45541;BME280;31265;49.680;8.608;2024-02-15T12:21:22;100737.38;;;16.06;100.00
45541;BME280;31265;49.680;8.608;2024-02-15T12:23:55;100734.13;;;16.10;100.00
45541;BME280;31265;49.680;8.608;2024-02-15T12:26:31;100733.38;;;16.19;100.00
45541;BME280;31265;49.680;8.608;2024-02-15T12:29:02;100727.94;;;16.02;100.00
45541;BME280;31265;49.680;8.608;2024-02-15T12:31:35;100723.50;;;16.18;100.00
45541;BME280;31265;49.680;8.608;2024-02-15T12:34:07;100714.78;;;16.24;100.00
45541;BME280;31265;49.680;8.608;2024-02-15T12:36:36;100720.44;;;16.04;100.00
45541;BME280;31265;49.680;8.608;2024-02-15T12:39:06;100721.28;;;16.17;100.00
45541;BME280;31265;49.680;8.608;2024-02-15T12:41:40;100712.28;;;16.28;100.00
45541;BME280;31265;49.680;8.608;2024-02-15T12:44:09;100707.28;;;16.26;100.00
45541;BME280;31265;49.680;8.608;2024-02-15T12:46:38;100707.44;;;16.19;100.00
45541;BME280;31265;49.680;8.608;2024-02-15T12:49:12;100698.88;;;16.26;100.00
45541;BME280;31265;49.680;8.608;2024-02-15T12:51:50;100698.91;;;16.07;100.00
45541;BME280;31265;49.680;8.608;2024-02-15T12:54:20;100704.78;;;16.21;100.00
45541;BME280;31265;49.680;8.608;2024-02-15T12:56:49;100693.91;;;16.15;100.00
45541;BME280;31265;49.680;8.608;2024-02-15T12:59:19;100690.03;;;16.30;100.00
45541;BME280;31265;49.680;8.608;2024-02-15T13:01:48;100700.09;;;16.13;100.00
45541;BME280;31265;49.680;8.608;2024-02-15T13:04:23;100694.06;;;16.17;100.00
45541;BME280;31265;49.680;8.608;2024-02-15T13:06:53;100695.50;;;16.18;100.00